sensor_id;sensor_type;location;lat;lon;timestamp;pressure;altitude;pressure_sealevel;temperature;humidity
39773;BME280;25451;51.960;6.250;2022-12-07T00:00:27;101586.81;;;5.82;78.74
39773;BME280;25451;51.960;6.250;2022-12-07T00:02:52;101586.63;;;5.83;78.60
39773;BME280;25451;51.960;6.250;2022-12-07T00:05:17;101585.09;;;5.81;78.49
39773;BME280;25451;51.960;6.250;2022-12-07T00:07:42;101586.81;;;5.82;78.38
39773;BME280;25451;51.960;6.250;2022-12-07T00:10:08;101582.56;;;5.79;78.27
39773;BME280;25451;51.960;6.250;2022-12-07T00:12:33;101582.38;;;5.81;78.35
39773;BME280;25451;51.960;6.250;2022-12-07T00:14:58;101576.44;;;5.77;78.61
39773;BME280;25451;51.960;6.250;2022-12-07T00:17:24;101581.72;;;5.79;78.62
39773;BME280;25451;51.960;6.250;2022-12-07T00:19:49;101574.72;;;5.76;78.14
39773;BME280;25451;51.960;6.250;2022-12-07T00:22:14;101566.50;;;5.76;78.47
39773;BME280;25451;51.960;6.250;2022-12-07T00:24:39;101569.06;;;5.78;78.30
39773;BME280;25451;51.960;6.250;2022-12-07T00:27:05;101566.50;;;5.76;78.17
39773;BME280;25451;51.960;6.250;2022-12-07T00:29:30;101558.50;;;5.75;78.61
39773;BME280;25451;51.960;6.250;2022-12-07T00:31:55;101560.38;;;5.74;78.18
39773;BME280;25451;51.960;6.250;2022-12-07T00:34:21;101551.72;;;5.71;78.60
39773;BME280;25451;51.960;6.250;2022-12-07T00:36:47;101558.03;;;5.71;78.72
39773;BME280;25451;51.960;6.250;2022-12-07T00:39:13;101557.19;;;5.71;78.39
39773;BME280;25451;51.960;6.250;2022-12-07T00:41:38;101554.00;;;5.67;78.30
39773;BME280;25451;51.960;6.250;2022-12-07T00:44:04;101555.88;;;5.67;78.09
39773;BME280;25451;51.960;6.250;2022-12-07T00:46:29;101556.09;;;5.65;78.24
39773;BME280;25451;51.960;6.250;2022-12-07T00:48:54;101554.56;;;5.63;78.39
39773;BME280;25451;51.960;6.250;2022-12-07T00:51:22;101551.56;;;5.58;78.44
39773;BME280;25451;51.960;6.250;2022-12-07T00:53:48;101551.31;;;5.53;78.42
39773;BME280;25451;51.960;6.250;2022-12-07T00:56:16;101559.13;;;5.56;78.44
39773;BME280;25451;51.960;6.250;2022-12-07T00:58:42;101550.88;;;5.49;78.56
39773;BME280;25451;51.960;6.250;2022-12-07T01:01:08;101556.13;;;5.51;78.46
39773;BME280;25451;51.960;6.250;2022-12-07T01:03:35;101549.16;;;5.48;78.41
39773;BME280;25451;51.960;6.250;2022-12-07T01:06:01;101550.38;;;5.46;78.19
39773;BME280;25451;51.960;6.250;2022-12-07T01:08:27;101542.56;;;5.43;78.43
39773;BME280;25451;51.960;6.250;2022-12-07T01:11:05;101542.28;;;5.38;78.34
39773;BME280;25451;51.960;6.250;2022-12-07T01:13:32;101546.09;;;5.37;78.32
39773;BME280;25451;51.960;6.250;2022-12-07T01:15:59;101539.28;;;5.33;78.42
39773;BME280;25451;51.960;6.250;2022-12-07T01:18:27;101553.19;;;5.31;78.36
39773;BME280;25451;51.960;6.250;2022-12-07T01:21:06;101542.16;;;5.25;78.77
39773;BME280;25451;51.960;6.250;2022-12-07T01:23:32;101552.03;;;5.26;78.17
39773;BME280;25451;51.960;6.250;2022-12-07T01:25:59;101546.50;;;5.19;78.59
39773;BME280;25451;51.960;6.250;2022-12-07T01:28:25;101548.19;;;5.20;78.57
39773;BME280;25451;51.960;6.250;2022-12-07T01:31:08;101557.63;;;5.18;78.69
39773;BME280;25451;51.960;6.250;2022-12-07T01:33:38;101559.72;;;5.16;78.83
39773;BME280;25451;51.960;6.250;2022-12-07T01:36:12;101562.84;;;5.13;78.48
39773;BME280;25451;51.960;6.250;2022-12-07T01:38:38;101555.56;;;5.05;78.75
39773;BME280;25451;51.960;6.250;2022-12-07T01:41:04;101572.66;;;5.07;78.29
39773;BME280;25451;51.960;6.250;2022-12-07T01:43:31;101560.88;;;5.07;78.70
39773;BME280;25451;51.960;6.250;2022-12-07T01:45:57;101567.38;;;5.05;78.41
39773;BME280;25451;51.960;6.250;2022-12-07T01:48:26;101556.81;;;5.02;78.74
39773;BME280;25451;51.960;6.250;2022-12-07T01:50:54;101550.03;;;4.98;78.95
39773;BME280;25451;51.960;6.250;2022-12-07T01:53:24;101549.38;;;4.96;78.89
39773;BME280;25451;51.960;6.250;2022-12-07T01:55:52;101551.06;;;4.97;78.88
39773;BME280;25451;51.960;6.250;2022-12-07T01:58:18;101546.16;;;4.93;78.94
39773;BME280;25451;51.960;6.250;2022-12-07T02:00:43;101550.59;;;4.94;78.62
39773;BME280;25451;51.960;6.250;2022-12-07T02:03:14;101542.31;;;4.87;78.55
39773;BME280;25451;51.960;6.250;2022-12-07T02:05:41;101541.94;;;4.90;78.42
39773;BME280;25451;51.960;6.250;2022-12-07T02:08:09;101540.63;;;4.86;78.46
39773;BME280;25451;51.960;6.250;2022-12-07T02:10:35;101539.97;;;4.84;78.67
39773;BME280;25451;51.960;6.250;2022-12-07T02:13:04;101538.06;;;4.85;78.55
39773;BME280;25451;51.960;6.250;2022-12-07T02:21:11;101554.00;;;4.81;78.78
39773;BME280;25451;51.960;6.250;2022-12-07T02:29:25;101543.81;;;4.75;78.43
39773;BME280;25451;51.960;6.250;2022-12-07T02:32:13;101549.28;;;4.75;78.53
39773;BME280;25451;51.960;6.250;2022-12-07T02:37:39;101552.41;;;4.72;78.45
39773;BME280;25451;51.960;6.250;2022-12-07T02:40:31;101546.66;;;4.67;78.57
39773;BME280;25451;51.960;6.250;2022-12-07T02:43:04;101541.66;;;4.71;78.68
39773;BME280;25451;51.960;6.250;2022-12-07T02:45:32;101541.84;;;4.69;78.70
39773;BME280;25451;51.960;6.250;2022-12-07T02:48:00;101538.81;;;4.64;78.25
39773;BME280;25451;51.960;6.250;2022-12-07T02:50:26;101548.34;;;4.68;78.45
39773;BME280;25451;51.960;6.250;2022-12-07T02:52:52;101541.19;;;4.67;78.57
39773;BME280;25451;51.960;6.250;2022-12-07T02:55:20;101546.66;;;4.67;78.58
39773;BME280;25451;51.960;6.250;2022-12-07T02:57:59;101540.72;;;4.64;78.65
39773;BME280;25451;51.960;6.250;2022-12-07T03:00:26;101537.13;;;4.63;78.62
39773;BME280;25451;51.960;6.250;2022-12-07T03:03:03;101546.19;;;4.64;78.58
39773;BME280;25451;51.960;6.250;2022-12-07T03:05:41;101553.75;;;4.62;78.58
39773;BME280;25451;51.960;6.250;2022-12-07T03:11:02;101554.94;;;4.59;78.65
39773;BME280;25451;51.960;6.250;2022-12-07T03:13:34;101554.09;;;4.59;78.46
39773;BME280;25451;51.960;6.250;2022-12-07T03:18:34;101552.41;;;4.58;78.39
39773;BME280;25451;51.960;6.250;2022-12-07T03:21:06;101547.13;;;4.56;78.25
39773;BME280;25451;51.960;6.250;2022-12-07T03:23:35;101548.63;;;4.59;78.22
39773;BME280;25451;51.960;6.250;2022-12-07T03:26:04;101549.03;;;4.56;78.49
39773;BME280;25451;51.960;6.250;2022-12-07T03:28:33;101551.38;;;4.59;78.27
39773;BME280;25451;51.960;6.250;2022-12-07T03:31:22;101551.16;;;4.60;78.38
39773;BME280;25451;51.960;6.250;2022-12-07T03:37:33;101547.41;;;4.61;78.12
39773;BME280;25451;51.960;6.250;2022-12-07T03:40:11;101544.88;;;4.60;78.35
39773;BME280;25451;51.960;6.250;2022-12-07T03:42:39;101533.75;;;4.61;78.33
39773;BME280;25451;51.960;6.250;2022-12-07T03:45:05;101535.41;;;4.62;78.35
39773;BME280;25451;51.960;6.250;2022-12-07T03:47:35;101528.94;;;4.63;78.47
39773;BME280;25451;51.960;6.250;2022-12-07T03:50:08;101532.69;;;4.62;77.98
39773;BME280;25451;51.960;6.250;2022-12-07T03:55:18;101525.16;;;4.64;78.26
39773;BME280;25451;51.960;6.250;2022-12-07T03:57:47;101526.84;;;4.65;78.34
39773;BME280;25451;51.960;6.250;2022-12-07T04:00:15;101523.06;;;4.66;78.27
39773;BME280;25451;51.960;6.250;2022-12-07T04:02:41;101518.00;;;4.63;78.40
39773;BME280;25451;51.960;6.250;2022-12-07T04:05:07;101530.25;;;4.67;78.40
39773;BME280;25451;51.960;6.250;2022-12-07T04:07:33;101531.66;;;4.63;78.38
39773;BME280;25451;51.960;6.250;2022-12-07T04:09:58;101531.09;;;4.68;78.23
39773;BME280;25451;51.960;6.250;2022-12-07T04:12:24;101531.09;;;4.68;78.47
39773;BME280;25451;51.960;6.250;2022-12-07T04:14:49;101529.84;;;4.70;78.22
39773;BME280;25451;51.960;6.250;2022-12-07T04:17:14;101532.44;;;4.72;77.96
39773;BME280;25451;51.960;6.250;2022-12-07T04:19:40;101529.69;;;4.72;78.05
39773;BME280;25451;51.960;6.250;2022-12-07T04:22:05;101527.81;;;4.72;78.23
39773;BME280;25451;51.960;6.250;2022-12-07T04:24:32;101524.88;;;4.74;78.38
39773;BME280;25451;51.960;6.250;2022-12-07T04:26:58;101522.34;;;4.72;78.20
39773;BME280;25451;51.960;6.250;2022-12-07T04:29:23;101524.88;;;4.74;77.91
39773;BME280;25451;51.960;6.250;2022-12-07T04:31:49;101521.66;;;4.70;78.09
39773;BME280;25451;51.960;6.250;2022-12-07T04:34:15;101523.38;;;4.71;78.23
39773;BME280;25451;51.960;6.250;2022-12-07T04:36:41;101525.91;;;4.73;78.27
39773;BME280;25451;51.960;6.250;2022-12-07T04:39:08;101521.47;;;4.72;78.21
39773;BME280;25451;51.960;6.250;2022-12-07T04:41:38;101518.91;;;4.70;78.15
39773;BME280;25451;51.960;6.250;2022-12-07T04:44:04;101522.72;;;4.69;78.47
39773;BME280;25451;51.960;6.250;2022-12-07T04:46:32;101522.91;;;4.68;78.63
39773;BME280;25451;51.960;6.250;2022-12-07T04:48:58;101527.50;;;4.67;78.28
39773;BME280;25451;51.960;6.250;2022-12-07T04:51:26;101524.13;;;4.65;78.58
39773;BME280;25451;51.960;6.250;2022-12-07T04:53:52;101526.00;;;4.65;78.68
39773;BME280;25451;51.960;6.250;2022-12-07T04:56:18;101523.47;;;4.63;78.64
39773;BME280;25451;51.960;6.250;2022-12-07T04:58:45;101527.06;;;4.64;78.29
39773;BME280;25451;51.960;6.250;2022-12-07T05:01:11;101520.72;;;4.63;78.60
39773;BME280;25451;51.960;6.250;2022-12-07T05:03:37;101518.00;;;4.63;78.41
39773;BME280;25451;51.960;6.250;2022-12-07T05:06:03;101511.66;;;4.63;78.46
39773;BME280;25451;51.960;6.250;2022-12-07T05:08:29;101515.47;;;4.62;78.24
39773;BME280;25451;51.960;6.250;2022-12-07T05:10:54;101512.72;;;4.62;78.26
39773;BME280;25451;51.960;6.250;2022-12-07T05:13:19;101506.09;;;4.56;78.39
39773;BME280;25451;51.960;6.250;2022-12-07T05:15:46;101506.41;;;4.61;78.45
39773;BME280;25451;51.960;6.250;2022-12-07T05:18:12;101517.53;;;4.60;78.59
39773;BME280;25451;51.960;6.250;2022-12-07T05:20:38;101507.81;;;4.57;78.57
39773;BME280;25451;51.960;6.250;2022-12-07T05:23:03;101511.56;;;4.56;78.40
39773;BME280;25451;51.960;6.250;2022-12-07T05:25:29;101516.03;;;4.57;78.27
39773;BME280;25451;51.960;6.250;2022-12-07T05:27:55;101518.28;;;4.54;78.41
39773;BME280;25451;51.960;6.250;2022-12-07T05:30:21;101518.28;;;4.54;78.52
39773;BME280;25451;51.960;6.250;2022-12-07T05:32:46;101527.03;;;4.49;78.45
39773;BME280;25451;51.960;6.250;2022-12-07T05:35:11;101525.19;;;4.50;78.40
39773;BME280;25451;51.960;6.250;2022-12-07T05:37:37;101526.38;;;4.47;78.58
39773;BME280;25451;51.960;6.250;2022-12-07T05:40:03;101523.00;;;4.45;78.50
39773;BME280;25451;51.960;6.250;2022-12-07T05:42:28;101522.13;;;4.45;78.59
39773;BME280;25451;51.960;6.250;2022-12-07T05:44:54;101513.47;;;4.41;78.62
39773;BME280;25451;51.960;6.250;2022-12-07T05:47:19;101518.09;;;4.41;78.89
39773;BME280;25451;51.960;6.250;2022-12-07T05:49:45;101515.56;;;4.39;78.66
39773;BME280;25451;51.960;6.250;2022-12-07T05:52:10;101510.44;;;4.36;78.57
39773;BME280;25451;51.960;6.250;2022-12-07T05:54:35;101512.50;;;4.34;78.69
39773;BME280;25451;51.960;6.250;2022-12-07T05:57:00;101511.19;;;4.30;78.78
39773;BME280;25451;51.960;6.250;2022-12-07T05:59:26;101491.31;;;4.21;78.70
39773;BME280;25451;51.960;6.250;2022-12-07T06:02:00;101508.66;;;4.29;78.79
39773;BME280;25451;51.960;6.250;2022-12-07T06:04:29;101514.31;;;4.27;78.77
39773;BME280;25451;51.960;6.250;2022-12-07T06:06:55;101512.81;;;4.25;78.87
39773;BME280;25451;51.960;6.250;2022-12-07T06:09:22;101509.22;;;4.24;78.43
39773;BME280;25451;51.960;6.250;2022-12-07T06:11:47;101501.41;;;4.21;78.62
39773;BME280;25451;51.960;6.250;2022-12-07T06:14:31;101503.09;;;4.22;78.61
39773;BME280;25451;51.960;6.250;2022-12-07T06:16:57;101497.50;;;4.15;78.56
39773;BME280;25451;51.960;6.250;2022-12-07T06:19:22;101508.09;;;4.18;78.73
39773;BME280;25451;51.960;6.250;2022-12-07T06:21:48;101514.41;;;4.19;78.42
39773;BME280;25451;51.960;6.250;2022-12-07T06:24:14;101502.16;;;4.15;78.62
39773;BME280;25451;51.960;6.250;2022-12-07T06:26:41;101505.72;;;4.15;78.46
39773;BME280;25451;51.960;6.250;2022-12-07T06:29:07;101503.38;;;4.12;78.75
39773;BME280;25451;51.960;6.250;2022-12-07T06:31:32;101507.63;;;4.15;78.48
39773;BME280;25451;51.960;6.250;2022-12-07T06:34:03;101499.97;;;4.10;78.71
39773;BME280;25451;51.960;6.250;2022-12-07T06:36:29;101506.09;;;4.12;78.57
39773;BME280;25451;51.960;6.250;2022-12-07T06:38:55;101504.59;;;4.10;78.41
39773;BME280;25451;51.960;6.250;2022-12-07T06:41:20;101505.63;;;4.09;78.49
39773;BME280;25451;51.960;6.250;2022-12-07T06:43:46;101513.81;;;4.09;78.85
39773;BME280;25451;51.960;6.250;2022-12-07T06:46:11;101508.38;;;4.09;78.70
39773;BME280;25451;51.960;6.250;2022-12-07T06:48:37;101508.53;;;4.07;78.63
39773;BME280;25451;51.960;6.250;2022-12-07T06:51:02;101516.72;;;4.07;78.84
39773;BME280;25451;51.960;6.250;2022-12-07T06:53:27;101503.66;;;4.03;78.65
39773;BME280;25451;51.960;6.250;2022-12-07T06:55:53;101511.44;;;4.06;78.49
39773;BME280;25451;51.960;6.250;2022-12-07T06:58:18;101517.09;;;4.04;78.88
39773;BME280;25451;51.960;6.250;2022-12-07T07:00:44;101515.41;;;4.03;78.56
39773;BME280;25451;51.960;6.250;2022-12-07T07:03:10;101516.63;;;4.01;78.58
39773;BME280;25451;51.960;6.250;2022-12-07T07:05:36;101508.13;;;3.96;78.62
39773;BME280;25451;51.960;6.250;2022-12-07T07:08:02;101510.66;;;3.97;78.50
39773;BME280;25451;51.960;6.250;2022-12-07T07:10:28;101518.03;;;3.97;78.81
39773;BME280;25451;51.960;6.250;2022-12-07T07:12:53;101518.41;;;3.94;78.76
39773;BME280;25451;51.960;6.250;2022-12-07T07:15:18;101513.31;;;3.91;78.70
39773;BME280;25451;51.960;6.250;2022-12-07T07:17:44;101525.94;;;3.92;78.74
39773;BME280;25451;51.960;6.250;2022-12-07T07:20:09;101519.13;;;3.88;78.62
39773;BME280;25451;51.960;6.250;2022-12-07T07:22:35;101525.44;;;3.88;78.63
39773;BME280;25451;51.960;6.250;2022-12-07T07:25:00;101530.06;;;3.88;78.82
39773;BME280;25451;51.960;6.250;2022-12-07T07:27:25;101526.00;;;3.84;78.74
39773;BME280;25451;51.960;6.250;2022-12-07T07:29:51;101526.00;;;3.84;78.67
39773;BME280;25451;51.960;6.250;2022-12-07T07:32:16;101526.00;;;3.84;78.71
39773;BME280;25451;51.960;6.250;2022-12-07T07:34:41;101523.63;;;3.81;78.35
39773;BME280;25451;51.960;6.250;2022-12-07T07:37:07;101521.75;;;3.81;78.72
39773;BME280;25451;51.960;6.250;2022-12-07T07:39:32;101526.34;;;3.81;78.55
39773;BME280;25451;51.960;6.250;2022-12-07T07:41:57;101527.41;;;3.80;78.23
39773;BME280;25451;51.960;6.250;2022-12-07T07:44:22;101520.22;;;3.79;78.86
39773;BME280;25451;51.960;6.250;2022-12-07T07:46:48;101520.41;;;3.77;78.49
39773;BME280;25451;51.960;6.250;2022-12-07T07:49:13;101528.78;;;3.76;78.83
39773;BME280;25451;51.960;6.250;2022-12-07T07:51:38;101530.47;;;3.77;78.50
39773;BME280;25451;51.960;6.250;2022-12-07T07:54:04;101515.69;;;3.71;78.45
39773;BME280;25451;51.960;6.250;2022-12-07T07:56:29;101524.94;;;3.70;78.65
39773;BME280;25451;51.960;6.250;2022-12-07T07:58:54;101528.31;;;3.72;78.50
39773;BME280;25451;51.960;6.250;2022-12-07T08:01:20;101523.03;;;3.71;78.42
39773;BME280;25451;51.960;6.250;2022-12-07T08:03:48;101524.94;;;3.70;78.48
39773;BME280;25451;51.960;6.250;2022-12-07T08:06:14;101529.53;;;3.70;78.61
39773;BME280;25451;51.960;6.250;2022-12-07T08:08:39;101539.41;;;3.71;78.54
39773;BME280;25451;51.960;6.250;2022-12-07T08:11:05;101535.00;;;3.70;78.44
39773;BME280;25451;51.960;6.250;2022-12-07T08:13:31;101539.41;;;3.71;78.45
39773;BME280;25451;51.960;6.250;2022-12-07T08:15:56;101538.56;;;3.70;78.39
39773;BME280;25451;51.960;6.250;2022-12-07T08:18:21;101537.53;;;3.71;78.40
39773;BME280;25451;51.960;6.250;2022-12-07T08:20:47;101538.75;;;3.69;78.52
39773;BME280;25451;51.960;6.250;2022-12-07T08:23:12;101541.78;;;3.74;78.65
39773;BME280;25451;51.960;6.250;2022-12-07T08:25:38;101546.03;;;3.76;78.38
39773;BME280;25451;51.960;6.250;2022-12-07T08:28:03;101544.13;;;3.77;78.24
39773;BME280;25451;51.960;6.250;2022-12-07T08:30:30;101540.00;;;3.81;78.40
39773;BME280;25451;51.960;6.250;2022-12-07T08:32:56;101547.84;;;3.84;78.53
39773;BME280;25451;51.960;6.250;2022-12-07T08:35:21;101548.31;;;3.87;78.39
39773;BME280;25451;51.960;6.250;2022-12-07T08:37:46;101552.94;;;3.87;78.48
39773;BME280;25451;51.960;6.250;2022-12-07T08:40:12;101553.22;;;3.92;78.12
39773;BME280;25451;51.960;6.250;2022-12-07T08:42:50;101551.84;;;3.96;78.14
39773;BME280;25451;51.960;6.250;2022-12-07T08:45:16;101551.47;;;3.99;78.20
39773;BME280;25451;51.960;6.250;2022-12-07T08:48:08;101548.00;;;4.05;78.23
39773;BME280;25451;51.960;6.250;2022-12-07T08:50:36;101542.34;;;4.06;78.11
39773;BME280;25451;51.960;6.250;2022-12-07T08:53:03;101548.28;;;4.10;78.12
39773;BME280;25451;51.960;6.250;2022-12-07T08:55:29;101539.91;;;4.11;77.99
39773;BME280;25451;51.960;6.250;2022-12-07T08:57:57;101550.75;;;4.19;78.13
39773;BME280;25451;51.960;6.250;2022-12-07T09:00:23;101546.44;;;4.25;77.93
39773;BME280;25451;51.960;6.250;2022-12-07T09:02:49;101544.38;;;4.27;78.29
39773;BME280;25451;51.960;6.250;2022-12-07T09:05:14;101546.72;;;4.30;77.88
39773;BME280;25451;51.960;6.250;2022-12-07T09:07:46;101551.44;;;4.36;78.16
39773;BME280;25451;51.960;6.250;2022-12-07T09:10:14;101554.16;;;4.36;77.88
39773;BME280;25451;51.960;6.250;2022-12-07T09:12:40;101553.81;;;4.39;78.16
39773;BME280;25451;51.960;6.250;2022-12-07T09:15:05;101551.94;;;4.40;78.43
39773;BME280;25451;51.960;6.250;2022-12-07T09:17:34;101554.09;;;4.44;78.21
39773;BME280;25451;51.960;6.250;2022-12-07T09:20:00;101542.31;;;4.44;78.06
39773;BME280;25451;51.960;6.250;2022-12-07T09:22:29;101552.00;;;4.46;78.10
39773;BME280;25451;51.960;6.250;2022-12-07T09:24:55;101555.69;;;4.53;78.11
39773;BME280;25451;51.960;6.250;2022-12-07T09:27:20;101553.44;;;4.57;78.24
39773;BME280;25451;51.960;6.250;2022-12-07T09:29:46;101553.34;;;4.65;78.26
39773;BME280;25451;51.960;6.250;2022-12-07T09:32:11;101555.81;;;4.74;78.14
39773;BME280;25451;51.960;6.250;2022-12-07T09:34:38;101547.69;;;4.81;78.09
39773;BME280;25451;51.960;6.250;2022-12-07T09:37:03;101546.09;;;4.86;78.04
39773;BME280;25451;51.960;6.250;2022-12-07T09:39:29;101550.88;;;4.99;78.01
39773;BME280;25451;51.960;6.250;2022-12-07T09:41:54;101553.13;;;5.10;77.67
39773;BME280;25451;51.960;6.250;2022-12-07T09:44:24;101552.81;;;5.20;77.72
39773;BME280;25451;51.960;6.250;2022-12-07T09:46:51;101543.06;;;5.32;77.65
39773;BME280;25451;51.960;6.250;2022-12-07T09:49:20;101542.16;;;5.46;77.99
39773;BME280;25451;51.960;6.250;2022-12-07T09:51:46;101536.84;;;5.59;77.30
39773;BME280;25451;51.960;6.250;2022-12-07T09:54:14;101526.03;;;5.72;77.57
39773;BME280;25451;51.960;6.250;2022-12-07T09:56:40;101524.50;;;5.84;77.37
39773;BME280;25451;51.960;6.250;2022-12-07T09:59:05;101522.97;;;6.03;77.15
39773;BME280;25451;51.960;6.250;2022-12-07T10:01:33;101528.09;;;6.12;76.97
39773;BME280;25451;51.960;6.250;2022-12-07T10:06:33;101528.09;;;6.40;77.04
39773;BME280;25451;51.960;6.250;2022-12-07T10:08:59;101517.44;;;6.51;77.62
39773;BME280;25451;51.960;6.250;2022-12-07T10:11:24;101524.03;;;6.63;77.33
39773;BME280;25451;51.960;6.250;2022-12-07T10:13:52;101521.78;;;6.74;77.71
39773;BME280;25451;51.960;6.250;2022-12-07T10:18:51;101523.72;;;6.86;77.87
39773;BME280;25451;51.960;6.250;2022-12-07T10:21:19;101522.72;;;6.94;77.89
39773;BME280;25451;51.960;6.250;2022-12-07T10:24:12;101519.81;;;7.02;77.39
39773;BME280;25451;51.960;6.250;2022-12-07T10:26:51;101514.53;;;7.07;78.05
39773;BME280;25451;51.960;6.250;2022-12-07T10:29:24;101513.53;;;7.14;78.01
39773;BME280;25451;51.960;6.250;2022-12-07T10:31:58;101513.53;;;7.21;77.70
39773;BME280;25451;51.960;6.250;2022-12-07T10:34:28;101501.28;;;7.23;77.73
39773;BME280;25451;51.960;6.250;2022-12-07T10:37:14;101508.09;;;7.34;77.83
39773;BME280;25451;51.960;6.250;2022-12-07T10:39:52;101505.59;;;7.39;78.04
39773;BME280;25451;51.960;6.250;2022-12-07T10:42:31;101501.38;;;7.43;77.66
39773;BME280;25451;51.960;6.250;2022-12-07T10:47:50;101506.44;;;7.52;78.44
39773;BME280;25451;51.960;6.250;2022-12-07T11:00:44;101490.59;;;7.68;77.86
39773;BME280;25451;51.960;6.250;2022-12-07T11:03:30;101485.56;;;7.71;78.19
39773;BME280;25451;51.960;6.250;2022-12-07T11:06:09;101494.84;;;7.77;77.46
39773;BME280;25451;51.960;6.250;2022-12-07T11:11:32;101470.13;;;7.83;77.55
39773;BME280;25451;51.960;6.250;2022-12-07T11:16:52;101483.88;;;7.90;77.72
39773;BME280;25451;51.960;6.250;2022-12-07T11:24:59;101472.03;;;7.89;77.46
39773;BME280;25451;51.960;6.250;2022-12-07T11:27:47;101472.25;;;7.88;78.08
39773;BME280;25451;51.960;6.250;2022-12-07T11:30:19;101465.91;;;7.87;77.89
39773;BME280;25451;51.960;6.250;2022-12-07T11:35:45;101471.81;;;7.84;78.13
39773;BME280;25451;51.960;6.250;2022-12-07T11:38:18;101459.53;;;7.80;77.48
39773;BME280;25451;51.960;6.250;2022-12-07T11:40:48;101465.69;;;7.82;77.62
39773;BME280;25451;51.960;6.250;2022-12-07T11:43:27;101465.50;;;7.84;77.97
39773;BME280;25451;51.960;6.250;2022-12-07T11:46:08;101457.88;;;7.79;77.46
39773;BME280;25451;51.960;6.250;2022-12-07T11:49:10;101464.63;;;7.83;77.74
39773;BME280;25451;51.960;6.250;2022-12-07T11:51:39;101453.88;;;7.82;77.77
39773;BME280;25451;51.960;6.250;2022-12-07T11:54:15;101446.03;;;7.79;77.40
39773;BME280;25451;51.960;6.250;2022-12-07T11:56:43;101442.22;;;7.80;77.47
39773;BME280;25451;51.960;6.250;2022-12-07T11:59:38;101446.44;;;7.82;77.67
39773;BME280;25451;51.960;6.250;2022-12-07T12:02:28;101447.50;;;7.81;77.58
39773;BME280;25451;51.960;6.250;2022-12-07T12:05:13;101431.25;;;7.80;77.33
39773;BME280;25451;51.960;6.250;2022-12-07T12:07:41;101424.69;;;7.81;77.33
39773;BME280;25451;51.960;6.250;2022-12-07T12:13:15;101436.75;;;7.80;77.36
39773;BME280;25451;51.960;6.250;2022-12-07T12:20:58;101424.47;;;7.76;77.31
39773;BME280;25451;51.960;6.250;2022-12-07T12:23:50;101425.94;;;7.78;77.03
39773;BME280;25451;51.960;6.250;2022-12-07T12:26:24;101412.19;;;7.78;77.50
39773;BME280;25451;51.960;6.250;2022-12-07T12:29:00;101414.13;;;7.78;77.67
39773;BME280;25451;51.960;6.250;2022-12-07T12:33:55;101411.16;;;7.79;77.07
39773;BME280;25451;51.960;6.250;2022-12-07T12:36:42;101413.47;;;7.82;77.38
39773;BME280;25451;51.960;6.250;2022-12-07T12:46:56;101405.84;;;7.84;76.90
39773;BME280;25451;51.960;6.250;2022-12-07T12:54:24;101403.72;;;7.86;77.13
39773;BME280;25451;51.960;6.250;2022-12-07T12:57:17;101396.56;;;7.85;76.98
39773;BME280;25451;51.960;6.250;2022-12-07T13:02:32;101390.00;;;7.86;77.06
39773;BME280;25451;51.960;6.250;2022-12-07T13:05:23;101388.31;;;7.85;77.22
39773;BME280;25451;51.960;6.250;2022-12-07T13:08:15;101385.97;;;7.82;76.70
39773;BME280;25451;51.960;6.250;2022-12-07T13:10:46;101377.09;;;7.87;76.58
39773;BME280;25451;51.960;6.250;2022-12-07T13:18:36;101363.19;;;7.82;77.00
39773;BME280;25451;51.960;6.250;2022-12-07T13:28:38;101361.69;;;7.79;77.34
39773;BME280;25451;51.960;6.250;2022-12-07T13:31:18;101367.19;;;7.79;76.63
39773;BME280;25451;51.960;6.250;2022-12-07T13:33:46;101361.06;;;7.77;77.07
39773;BME280;25451;51.960;6.250;2022-12-07T13:36:32;101344.16;;;7.74;77.01
39773;BME280;25451;51.960;6.250;2022-12-07T13:39:21;101336.34;;;7.71;77.25
39773;BME280;25451;51.960;6.250;2022-12-07T13:41:57;101338.22;;;7.70;76.74
39773;BME280;25451;51.960;6.250;2022-12-07T13:44:25;101340.34;;;7.68;76.95
39773;BME280;25451;51.960;6.250;2022-12-07T13:46:59;101329.81;;;7.65;77.23
39773;BME280;25451;51.960;6.250;2022-12-07T13:49:30;101330.84;;;7.64;77.47
39773;BME280;25451;51.960;6.250;2022-12-07T13:52:15;101325.78;;;7.61;77.06
39773;BME280;25451;51.960;6.250;2022-12-07T13:57:22;101332.53;;;7.59;76.93
39773;BME280;25451;51.960;6.250;2022-12-07T13:59:49;101321.16;;;7.55;76.85
39773;BME280;25451;51.960;6.250;2022-12-07T14:02:31;101324.53;;;7.57;76.76
39773;BME280;25451;51.960;6.250;2022-12-07T14:07:33;101326.84;;;7.53;76.82
39773;BME280;25451;51.960;6.250;2022-12-07T14:10:01;101316.06;;;7.52;76.90
39773;BME280;25451;51.960;6.250;2022-12-07T14:12:29;101313.13;;;7.47;76.88
39773;BME280;25451;51.960;6.250;2022-12-07T14:14:55;101309.31;;;7.48;77.06
39773;BME280;25451;51.960;6.250;2022-12-07T14:17:24;101309.94;;;7.50;76.87
39773;BME280;25451;51.960;6.250;2022-12-07T14:24:50;101304.66;;;7.48;76.81
39773;BME280;25451;51.960;6.250;2022-12-07T14:27:21;101310.16;;;7.48;76.87
39773;BME280;25451;51.960;6.250;2022-12-07T14:29:47;101307.00;;;7.45;76.83
39773;BME280;25451;51.960;6.250;2022-12-07T14:32:25;101313.75;;;7.49;76.93
39773;BME280;25451;51.960;6.250;2022-12-07T14:37:23;101306.16;;;7.44;76.53
39773;BME280;25451;51.960;6.250;2022-12-07T14:39:48;101313.13;;;7.40;76.64
39773;BME280;25451;51.960;6.250;2022-12-07T14:42:14;101320.09;;;7.43;77.05
39773;BME280;25451;51.960;6.250;2022-12-07T14:44:39;101306.56;;;7.41;76.49
39773;BME280;25451;51.960;6.250;2022-12-07T14:47:04;101318.41;;;7.42;76.92
39773;BME280;25451;51.960;6.250;2022-12-07T14:49:30;101321.38;;;7.40;76.81
39773;BME280;25451;51.960;6.250;2022-12-07T14:51:55;101314.81;;;7.35;76.89
39773;BME280;25451;51.960;6.250;2022-12-07T14:54:24;101318.41;;;7.35;76.88
39773;BME280;25451;51.960;6.250;2022-12-07T14:56:51;101313.56;;;7.31;77.07
39773;BME280;25451;51.960;6.250;2022-12-07T14:59:17;101309.09;;;7.30;76.97